Time;durP1;ratioP1;P1;durP2;ratioP2;P2;SDS_P1;SDS_P2;PMS_P1;PMS_P2;Temp;Humidity;BMP_temperature;BMP_pressure;BME280_temperature;BME280_humidity;BME280_pressure;Samples;Min_cycle;Max_cycle;Signal;HPM_P1;HPM_P2
2022/09/07 00:02:10;;;;;;;2.87;1.30;;;;;;;;;;5060741;28;20261;-60
2022/09/07 00:04:39;;;;;;;2.63;1.27;;;;;;;;;;5060611;28;20253;-60
2022/09/07 00:07:07;;;;;;;1.63;1.20;;;;;;;;;;5060547;28;20264;-60
2022/09/07 00:09:35;;;;;;;2.73;1.20;;;;;;;;;;5060909;28;20219;-60
2022/09/07 00:12:04;;;;;;;4.10;1.40;;;;;;;;;;5060668;28;20210;-60
2022/09/07 00:14:33;;;;;;;4.23;1.40;;;;;;;;;;5060720;28;20256;-60
2022/09/07 00:17:01;;;;;;;3.43;1.47;;;;;;;;;;5060663;28;20260;-60
2022/09/07 00:19:30;;;;;;;1.93;1.30;;;;;;;;;;5060464;28;20245;-60
2022/09/07 00:21:58;;;;;;;6.00;1.60;;;;;;;;;;5059959;28;20206;-60
2022/09/07 00:24:26;;;;;;;2.13;1.37;;;;;;;;;;5060137;28;20236;-60
2022/09/07 00:26:54;;;;;;;4.07;1.57;;;;;;;;;;5060334;28;20211;-60
2022/09/07 00:29:24;;;;;;;3.13;1.20;;;;;;;;;;5060194;28;20589;-60
2022/09/07 00:31:52;;;;;;;4.47;1.70;;;;;;;;;;5059995;28;20214;-60
2022/09/07 00:34:20;;;;;;;2.33;1.30;;;;;;;;;;5060178;28;20253;-60
2022/09/07 00:36:48;;;;;;;2.20;1.13;;;;;;;;;;5059823;28;20674;-60
2022/09/07 00:39:16;;;;;;;6.53;2.30;;;;;;;;;;5059991;28;20585;-60
2022/09/07 00:41:44;;;;;;;6.87;1.97;;;;;;;;;;5059939;28;20209;-60
2022/09/07 00:44:31;;;;;;;6.27;2.10;;;;;;;;;;5059840;28;20260;-60
2022/09/07 00:47:00;;;;;;;4.17;2.33;;;;;;;;;;5059829;28;20263;-60
2022/09/07 00:49:29;;;;;;;8.27;2.00;;;;;;;;;;5060085;28;20209;-60
2022/09/07 00:51:59;;;;;;;3.03;1.80;;;;;;;;;;5059468;28;20648;-60
2022/09/07 00:54:28;;;;;;;5.47;1.80;;;;;;;;;;5059033;28;20233;-60
2022/09/07 00:56:56;;;;;;;3.57;1.90;;;;;;;;;;5059824;28;20220;-60
2022/09/07 00:59:26;;;;;;;4.47;1.63;;;;;;;;;;5059642;28;20576;-60
2022/09/07 01:01:55;;;;;;;4.57;1.63;;;;;;;;;;5059656;28;20216;-60
2022/09/07 01:04:25;;;;;;;3.80;1.60;;;;;;;;;;5059452;28;20283;-60
2022/09/07 01:06:53;;;;;;;3.13;1.57;;;;;;;;;;5059163;28;20254;-60
2022/09/07 01:09:22;;;;;;;2.90;1.47;;;;;;;;;;5059460;28;20261;-60
2022/09/07 01:11:51;;;;;;;3.13;1.40;;;;;;;;;;5059258;28;20234;-60
2022/09/07 01:14:21;;;;;;;8.00;2.03;;;;;;;;;;5059593;28;20260;-60
2022/09/07 01:16:54;;;;;;;4.30;1.57;;;;;;;;;;5059268;28;20680;-60
2022/09/07 01:19:38;;;;;;;6.37;1.70;;;;;;;;;;5059560;28;20214;-60
2022/09/07 01:22:17;;;;;;;4.27;1.53;;;;;;;;;;5058940;28;20210;-60
2022/09/07 01:24:51;;;;;;;6.67;1.90;;;;;;;;;;5059101;28;20278;-60
2022/09/07 01:27:52;;;;;;;3.13;2.63;;;;;;;;;;5059193;28;20266;-60
2022/09/07 01:30:23;;;;;;;3.00;1.50;;;;;;;;;;5059030;28;20228;-60
2022/09/07 01:32:59;;;;;;;3.03;1.80;;;;;;;;;;5058863;28;20215;-60
2022/09/07 01:35:31;;;;;;;3.57;1.83;;;;;;;;;;5058737;28;20246;-60
2022/09/07 01:38:03;;;;;;;2.13;1.57;;;;;;;;;;5058927;28;20308;-60
2022/09/07 01:40:35;;;;;;;4.37;1.87;;;;;;;;;;5058742;28;20262;-60
2022/09/07 01:43:04;;;;;;;5.47;2.43;;;;;;;;;;5058893;28;20268;-60
2022/09/07 01:45:35;;;;;;;5.40;2.77;;;;;;;;;;5058928;28;20202;-60
2022/09/07 01:48:06;;;;;;;7.97;2.80;;;;;;;;;;5058578;28;20567;-60
2022/09/07 01:50:38;;;;;;;6.83;3.20;;;;;;;;;;5058261;28;20577;-60
2022/09/07 01:53:09;;;;;;;8.37;2.70;;;;;;;;;;5058560;28;20582;-60
2022/09/07 01:55:40;;;;;;;7.07;2.93;;;;;;;;;;5050091;28;20207;-60
2022/09/07 01:58:09;;;;;;;8.70;2.77;;;;;;;;;;5051371;28;20216;-60
2022/09/07 02:00:42;;;;;;;6.93;2.63;;;;;;;;;;5058141;28;20270;-60
2022/09/07 02:03:13;;;;;;;6.67;2.10;;;;;;;;;;5058226;28;20234;-60
2022/09/07 02:05:45;;;;;;;6.87;2.10;;;;;;;;;;5058037;28;20213;-60
2022/09/07 02:08:15;;;;;;;5.00;2.60;;;;;;;;;;5058507;28;20312;-60
2022/09/07 02:10:47;;;;;;;5.13;2.20;;;;;;;;;;5058050;28;20213;-60
2022/09/07 02:13:16;;;;;;;4.93;2.17;;;;;;;;;;5057789;28;20221;-60
2022/09/07 02:15:48;;;;;;;7.37;1.80;;;;;;;;;;5058213;28;20242;-60
2022/09/07 02:18:17;;;;;;;5.43;1.60;;;;;;;;;;5057900;28;20204;-60
2022/09/07 02:20:47;;;;;;;5.03;1.90;;;;;;;;;;5057468;28;20570;-60
2022/09/07 02:23:20;;;;;;;4.97;1.60;;;;;;;;;;5057611;28;20258;-60
2022/09/07 02:25:51;;;;;;;4.67;2.10;;;;;;;;;;5058997;28;20226;-60
2022/09/07 02:28:22;;;;;;;5.20;2.10;;;;;;;;;;5053832;28;20208;-62
2022/09/07 02:30:51;;;;;;;4.37;1.93;;;;;;;;;;5056196;28;20715;-61
2022/09/07 02:33:20;;;;;;;2.40;1.70;;;;;;;;;;5055860;28;20248;-62
2022/09/07 02:35:48;;;;;;;3.30;1.50;;;;;;;;;;5055973;28;20203;-61
2022/09/07 02:38:16;;;;;;;4.73;1.60;;;;;;;;;;5057046;28;20254;-62
2022/09/07 02:40:44;;;;;;;2.13;1.40;;;;;;;;;;5055543;28;20223;-61
2022/09/07 02:43:12;;;;;;;3.03;1.57;;;;;;;;;;5057401;28;20588;-62
2022/09/07 02:45:46;;;;;;;2.40;1.40;;;;;;;;;;5057636;28;20645;-61
2022/09/07 02:48:22;;;;;;;3.47;1.60;;;;;;;;;;5057848;28;20211;-61
2022/09/07 02:50:55;;;;;;;1.63;1.20;;;;;;;;;;5057280;28;20232;-62
2022/09/07 02:53:35;;;;;;;2.07;1.40;;;;;;;;;;5057481;28;20680;-62
2022/09/07 02:56:09;;;;;;;5.10;1.20;;;;;;;;;;5057417;28;20547;-62
2022/09/07 02:58:44;;;;;;;1.63;1.17;;;;;;;;;;5057858;28;20218;-61
2022/09/07 03:01:18;;;;;;;2.13;1.50;;;;;;;;;;5057805;28;20238;-61
2022/09/07 03:03:50;;;;;;;3.83;1.37;;;;;;;;;;5057516;28;20291;-61
2022/09/07 03:06:23;;;;;;;2.43;1.60;;;;;;;;;;5057133;28;20629;-62
2022/09/07 03:08:53;;;;;;;5.70;1.60;;;;;;;;;;5057403;28;20220;-62
2022/09/07 03:11:21;;;;;;;3.30;1.53;;;;;;;;;;5057246;28;20698;-62
2022/09/07 03:13:49;;;;;;;3.33;1.37;;;;;;;;;;5057526;28;20226;-61
2022/09/07 03:16:17;;;;;;;2.80;1.40;;;;;;;;;;5056793;28;20238;-62
2022/09/07 03:18:45;;;;;;;6.07;1.60;;;;;;;;;;5057339;28;20204;-61
2022/09/07 03:21:14;;;;;;;3.43;1.70;;;;;;;;;;5068832;28;20206;-62
2022/09/07 03:23:42;;;;;;;4.37;1.80;;;;;;;;;;5060980;28;20224;-62
2022/09/07 03:26:23;;;;;;;3.13;1.80;;;;;;;;;;5056846;28;20209;-62
2022/09/07 03:28:51;;;;;;;2.40;2.20;;;;;;;;;;5045101;28;20222;-62
2022/09/07 03:31:19;;;;;;;2.77;1.73;;;;;;;;;;5054821;28;20201;-60
2022/09/07 03:33:47;;;;;;;3.97;1.97;;;;;;;;;;5054225;28;20211;-60
2022/09/07 03:36:17;;;;;;;6.23;1.80;;;;;;;;;;5059169;28;20310;-60
2022/09/07 03:38:45;;;;;;;6.67;2.23;;;;;;;;;;5063392;28;20235;-60
2022/09/07 03:41:13;;;;;;;7.20;2.03;;;;;;;;;;5056509;28;20217;-59
2022/09/07 03:43:41;;;;;;;4.30;1.80;;;;;;;;;;5056563;28;20235;-59
2022/09/07 03:46:10;;;;;;;3.97;2.00;;;;;;;;;;5056934;28;20208;-60
2022/09/07 03:48:38;;;;;;;3.80;2.00;;;;;;;;;;5050164;28;20196;-60
2022/09/07 03:51:07;;;;;;;5.23;1.83;;;;;;;;;;5055022;28;20231;-60
2022/09/07 03:53:38;;;;;;;7.07;2.00;;;;;;;;;;5057732;28;20226;-60
2022/09/07 03:56:07;;;;;;;3.87;1.83;;;;;;;;;;5057069;28;20237;-60
2022/09/07 03:58:38;;;;;;;5.07;1.87;;;;;;;;;;5053218;28;20229;-60
2022/09/07 04:01:09;;;;;;;3.30;1.60;;;;;;;;;;5057118;28;20256;-60
2022/09/07 04:03:40;;;;;;;5.70;2.00;;;;;;;;;;5054540;28;20217;-60
2022/09/07 04:06:09;;;;;;;4.17;1.63;;;;;;;;;;5055919;28;20653;-60
2022/09/07 04:08:39;;;;;;;7.00;1.90;;;;;;;;;;5054480;28;20670;-60
2022/09/07 04:11:08;;;;;;;3.23;1.90;;;;;;;;;;5055467;28;20200;-60
2022/09/07 04:13:37;;;;;;;3.57;1.57;;;;;;;;;;5053172;28;20273;-60
2022/09/07 04:16:16;;;;;;;7.07;1.90;;;;;;;;;;5056322;28;20245;-60
2022/09/07 04:18:45;;;;;;;5.53;2.30;;;;;;;;;;5053263;28;20813;-60
2022/09/07 04:21:14;;;;;;;3.07;2.10;;;;;;;;;;5051190;28;20260;-60
2022/09/07 04:23:44;;;;;;;6.00;2.30;;;;;;;;;;5056726;28;20219;-60
2022/09/07 04:26:20;;;;;;;7.23;2.30;;;;;;;;;;5054172;28;20218;-60
2022/09/07 04:28:51;;;;;;;5.07;2.00;;;;;;;;;;5055951;28;20206;-60
2022/09/07 04:31:19;;;;;;;3.47;1.80;;;;;;;;;;5058429;28;20221;-60
2022/09/07 04:33:48;;;;;;;4.17;1.90;;;;;;;;;;5059554;28;20249;-59
2022/09/07 04:36:17;;;;;;;3.27;2.00;;;;;;;;;;5060130;28;20213;-60
2022/09/07 04:38:47;;;;;;;3.80;1.77;;;;;;;;;;5058914;28;20199;-59
2022/09/07 04:41:16;;;;;;;3.13;2.23;;;;;;;;;;5058457;28;20203;-59
2022/09/07 04:43:45;;;;;;;2.17;1.70;;;;;;;;;;5058952;28;20219;-59
2022/09/07 04:46:18;;;;;;;2.40;2.00;;;;;;;;;;5060023;28;20258;-59
2022/09/07 04:48:47;;;;;;;4.00;2.00;;;;;;;;;;5052927;28;20252;-59
2022/09/07 04:51:16;;;;;;;4.43;2.20;;;;;;;;;;5059473;28;20626;-59
2022/09/07 04:53:47;;;;;;;5.00;2.20;;;;;;;;;;5059742;28;20276;-59
2022/09/07 04:56:17;;;;;;;4.77;1.87;;;;;;;;;;5047113;28;20203;-59
2022/09/07 04:58:45;;;;;;;3.67;2.00;;;;;;;;;;5059946;28;20264;-59
2022/09/07 05:01:14;;;;;;;4.60;1.90;;;;;;;;;;5059651;28;20207;-59
2022/09/07 05:03:42;;;;;;;4.63;2.07;;;;;;;;;;5059742;28;20325;-59
2022/09/07 05:06:10;;;;;;;3.57;2.00;;;;;;;;;;5059259;28;20759;-59
2022/09/07 05:08:40;;;;;;;3.60;2.00;;;;;;;;;;5059632;28;20207;-60
2022/09/07 05:11:08;;;;;;;5.63;2.20;;;;;;;;;;5059862;28;20230;-60
2022/09/07 05:13:38;;;;;;;4.10;2.20;;;;;;;;;;5059512;28;20231;-60
2022/09/07 05:16:08;;;;;;;5.83;2.33;;;;;;;;;;5059677;28;20203;-60
2022/09/07 05:18:36;;;;;;;5.37;2.20;;;;;;;;;;5059605;28;20219;-59
2022/09/07 05:21:07;;;;;;;5.33;3.10;;;;;;;;;;5059329;28;20242;-60
2022/09/07 05:23:35;;;;;;;5.63;2.40;;;;;;;;;;5058952;28;20726;-60
2022/09/07 05:26:03;;;;;;;6.93;4.60;;;;;;;;;;5059053;28;20254;-59
2022/09/07 05:28:32;;;;;;;4.60;2.37;;;;;;;;;;5059252;28;20238;-59
2022/09/07 05:31:05;;;;;;;6.27;2.63;;;;;;;;;;5059326;28;20211;-59
2022/09/07 05:33:49;;;;;;;4.30;2.63;;;;;;;;;;5048494;28;20239;-59
2022/09/07 05:36:37;;;;;;;4.57;2.17;;;;;;;;;;5058534;28;20204;-59
2022/09/07 05:39:06;;;;;;;6.80;2.67;;;;;;;;;;5058475;28;20206;-59
2022/09/07 05:41:34;;;;;;;6.57;2.40;;;;;;;;;;5058930;28;20238;-59
2022/09/07 05:44:02;;;;;;;5.03;2.70;;;;;;;;;;5058738;28;20222;-59
2022/09/07 05:46:52;;;;;;;4.63;2.93;;;;;;;;;;5047783;28;20235;-59
2022/09/07 05:49:20;;;;;;;8.57;2.90;;;;;;;;;;5058632;28;20203;-59
2022/09/07 05:51:48;;;;;;;5.07;2.67;;;;;;;;;;5058384;28;20234;-59
2022/09/07 05:54:16;;;;;;;8.20;2.73;;;;;;;;;;5058709;28;20278;-59
2022/09/07 05:56:44;;;;;;;3.77;2.63;;;;;;;;;;5057285;28;20262;-59
2022/09/07 05:59:12;;;;;;;5.03;2.57;;;;;;;;;;5057066;28;20209;-60
2022/09/07 06:01:40;;;;;;;7.93;3.17;;;;;;;;;;5060331;28;20567;-60
2022/09/07 06:04:10;;;;;;;9.37;2.87;;;;;;;;;;5058632;28;20276;-60
2022/09/07 06:06:38;;;;;;;12.77;3.33;;;;;;;;;;5058168;28;20249;-61
2022/09/07 06:09:07;;;;;;;6.77;3.17;;;;;;;;;;5058660;28;20245;-60
2022/09/07 06:11:36;;;;;;;7.90;3.00;;;;;;;;;;5058142;28;20608;-60
2022/09/07 06:14:04;;;;;;;8.37;3.60;;;;;;;;;;5049410;28;20229;-61
2022/09/07 06:16:33;;;;;;;9.60;3.47;;;;;;;;;;5058246;28;20351;-61
2022/09/07 06:19:04;;;;;;;7.73;3.17;;;;;;;;;;5058420;28;20210;-61
2022/09/07 06:21:36;;;;;;;5.37;3.43;;;;;;;;;;5057861;28;20220;-60
2022/09/07 06:24:09;;;;;;;9.03;3.60;;;;;;;;;;5058033;28;20236;-61
2022/09/07 06:26:44;;;;;;;6.73;4.20;;;;;;;;;;5063554;28;20706;-61
2022/09/07 06:29:12;;;;;;;11.53;3.67;;;;;;;;;;5075317;28;20229;-61
2022/09/07 06:31:40;;;;;;;6.37;3.50;;;;;;;;;;5057528;28;20197;-60
2022/09/07 06:34:28;;;;;;;8.90;3.63;;;;;;;;;;5057748;28;20235;-61
2022/09/07 06:36:58;;;;;;;7.13;3.40;;;;;;;;;;5057496;28;20204;-61
2022/09/07 06:39:29;;;;;;;5.43;3.00;;;;;;;;;;5057807;28;20291;-61
2022/09/07 06:41:57;;;;;;;6.33;3.03;;;;;;;;;;5058032;28;20228;-60
2022/09/07 06:44:25;;;;;;;8.03;3.10;;;;;;;;;;5057681;28;20229;-61
2022/09/07 06:46:53;;;;;;;10.63;3.97;;;;;;;;;;5050714;28;20233;-61
2022/09/07 06:49:29;;;;;;;20.83;4.53;;;;;;;;;;5055733;28;20583;-61
2022/09/07 06:51:58;;;;;;;19.93;5.70;;;;;;;;;;5048299;28;20265;-61
2022/09/07 06:54:26;;;;;;;9.17;3.87;;;;;;;;;;5057643;28;20225;-61
2022/09/07 06:57:17;;;;;;;13.07;3.90;;;;;;;;;;5057377;28;20232;-61
2022/09/07 06:59:46;;;;;;;7.87;3.50;;;;;;;;;;5057834;28;20208;-61
2022/09/07 07:02:14;;;;;;;12.30;4.20;;;;;;;;;;5057536;28;20210;-61
2022/09/07 07:04:42;;;;;;;5.87;3.50;;;;;;;;;;5053199;28;20643;-61
2022/09/07 07:07:12;;;;;;;10.70;4.13;;;;;;;;;;5057522;28;20226;-61
2022/09/07 07:09:42;;;;;;;9.07;2.67;;;;;;;;;;5057478;28;20309;-61
2022/09/07 07:12:13;;;;;;;8.07;3.20;;;;;;;;;;5057317;28;20202;-61
2022/09/07 07:14:46;;;;;;;5.43;3.00;;;;;;;;;;5057130;28;20231;-60
2022/09/07 07:17:14;;;;;;;16.60;4.27;;;;;;;;;;5057194;28;20555;-60
2022/09/07 07:19:42;;;;;;;14.57;3.77;;;;;;;;;;5057385;28;20207;-59
2022/09/07 07:22:11;;;;;;;9.40;3.33;;;;;;;;;;5045778;28;20640;-60
2022/09/07 07:24:59;;;;;;;6.67;2.87;;;;;;;;;;5056979;28;20310;-59
2022/09/07 07:27:30;;;;;;;5.70;2.70;;;;;;;;;;5050139;28;20220;-59
2022/09/07 07:29:58;;;;;;;6.40;2.50;;;;;;;;;;5056243;28;20199;-59
2022/09/07 07:32:26;;;;;;;4.93;2.33;;;;;;;;;;5056911;28;20212;-60
2022/09/07 07:34:54;;;;;;;4.00;2.37;;;;;;;;;;5056564;28;20231;-60
2022/09/07 07:37:24;;;;;;;6.53;2.33;;;;;;;;;;5054647;28;20287;-61
2022/09/07 07:39:55;;;;;;;4.97;2.57;;;;;;;;;;5044448;28;20202;-61
2022/09/07 07:42:43;;;;;;;6.57;2.23;;;;;;;;;;5056865;28;20207;-60
2022/09/07 07:45:11;;;;;;;3.83;2.83;;;;;;;;;;5056619;28;20240;-60
2022/09/07 07:47:59;;;;;;;8.20;2.73;;;;;;;;;;5047074;28;20237;-63
2022/09/07 07:50:27;;;;;;;6.53;2.27;;;;;;;;;;5057032;28;20650;-62
2022/09/07 07:53:00;;;;;;;5.37;2.40;;;;;;;;;;5076777;28;20210;-63
2022/09/07 07:55:48;;;;;;;5.50;2.77;;;;;;;;;;5059302;28;20689;-63
2022/09/07 07:58:17;;;;;;;2.83;2.43;;;;;;;;;;5056992;28;20206;-62
2022/09/07 08:00:45;;;;;;;5.10;2.53;;;;;;;;;;5056911;28;20217;-63
2022/09/07 08:03:23;;;;;;;8.70;2.60;;;;;;;;;;5058214;28;20608;-62
2022/09/07 08:05:52;;;;;;;3.53;2.43;;;;;;;;;;5060211;28;20209;-62
2022/09/07 08:08:23;;;;;;;5.97;2.47;;;;;;;;;;5060258;28;20565;-62
2022/09/07 08:10:53;;;;;;;5.80;2.60;;;;;;;;;;5060499;28;20266;-62
2022/09/07 08:13:21;;;;;;;9.13;3.10;;;;;;;;;;5060010;28;20310;-62
2022/09/07 08:15:49;;;;;;;9.87;3.10;;;;;;;;;;5060678;28;20219;-62
2022/09/07 08:18:17;;;;;;;6.63;2.80;;;;;;;;;;5060313;28;20200;-62
2022/09/07 08:20:45;;;;;;;5.37;2.60;;;;;;;;;;5055461;28;20218;-62
2022/09/07 08:23:14;;;;;;;7.00;2.73;;;;;;;;;;5059848;28;20286;-62
2022/09/07 08:25:50;;;;;;;5.50;2.33;;;;;;;;;;5060014;28;20203;-62
2022/09/07 08:28:19;;;;;;;7.67;3.13;;;;;;;;;;5058073;28;20310;-62
2022/09/07 08:30:47;;;;;;;8.17;2.60;;;;;;;;;;5056881;28;20290;-62
2022/09/07 08:33:15;;;;;;;4.10;2.53;;;;;;;;;;5061383;28;20662;-63
2022/09/07 08:35:43;;;;;;;6.40;2.90;;;;;;;;;;5059915;28;20210;-62
2022/09/07 08:38:11;;;;;;;4.97;2.93;;;;;;;;;;5058903;28;20677;-63
2022/09/07 08:40:39;;;;;;;3.93;2.73;;;;;;;;;;5059762;28;20666;-62
2022/09/07 08:43:13;;;;;;;6.17;2.73;;;;;;;;;;5059110;28;20244;-62
2022/09/07 08:45:43;;;;;;;5.17;2.73;;;;;;;;;;5058884;28;20211;-62
2022/09/07 08:48:14;;;;;;;5.67;2.43;;;;;;;;;;5059792;28;20235;-62
2022/09/07 08:50:46;;;;;;;6.40;3.17;;;;;;;;;;5062268;28;20243;-62
2022/09/07 08:53:15;;;;;;;4.80;2.87;;;;;;;;;;5050342;28;20237;-62
2022/09/07 08:55:47;;;;;;;7.13;4.13;;;;;;;;;;5052727;28;20269;-62
2022/09/07 08:58:18;;;;;;;4.63;3.13;;;;;;;;;;5059560;28;20203;-63
2022/09/07 09:01:10;;;;;;;5.97;2.63;;;;;;;;;;5059707;28;20215;-62
2022/09/07 09:03:58;;;;;;;5.73;3.07;;;;;;;;;;5053172;28;20234;-63
2022/09/07 09:06:47;;;;;;;6.30;2.90;;;;;;;;;;5059044;28;20233;-63
2022/09/07 09:09:20;;;;;;;5.03;2.60;;;;;;;;;;5059299;28;20207;-62
2022/09/07 09:11:52;;;;;;;8.13;3.23;;;;;;;;;;5058361;28;20230;-62
2022/09/07 09:14:28;;;;;;;7.53;2.23;;;;;;;;;;5058319;28;20719;-62
2022/09/07 09:16:58;;;;;;;5.40;2.53;;;;;;;;;;5059286;28;20212;-62
2022/09/07 09:19:44;;;;;;;9.80;2.87;;;;;;;;;;5058507;28;20204;-61
2022/09/07 09:22:14;;;;;;;9.80;2.93;;;;;;;;;;5048986;28;20222;-62
2022/09/07 09:24:45;;;;;;;6.07;2.33;;;;;;;;;;5059114;28;20245;-62
2022/09/07 09:27:13;;;;;;;6.37;2.53;;;;;;;;;;5060739;28;20312;-62
2022/09/07 09:29:43;;;;;;;5.73;2.80;;;;;;;;;;5055423;28;20209;-62
2022/09/07 09:32:32;;;;;;;4.13;2.33;;;;;;;;;;5059034;28;20216;-62
2022/09/07 09:35:01;;;;;;;4.07;2.17;;;;;;;;;;5057138;28;20224;-62
2022/09/07 09:37:33;;;;;;;8.63;3.03;;;;;;;;;;5058914;28;20200;-62
2022/09/07 09:40:02;;;;;;;2.53;2.30;;;;;;;;;;5058875;28;20212;-62
2022/09/07 09:42:33;;;;;;;5.50;2.30;;;;;;;;;;5049917;28;20217;-62
2022/09/07 09:45:13;;;;;;;4.00;2.53;;;;;;;;;;5058535;28;20227;-61
2022/09/07 09:47:41;;;;;;;6.50;2.60;;;;;;;;;;5052727;28;20577;-61
2022/09/07 09:50:17;;;;;;;3.33;1.97;;;;;;;;;;5057925;28;20195;-61
2022/09/07 09:53:05;;;;;;;4.93;2.40;;;;;;;;;;5057986;28;20643;-62
2022/09/07 09:55:35;;;;;;;9.93;2.70;;;;;;;;;;5051456;28;20241;-62
2022/09/07 09:58:04;;;;;;;5.13;2.80;;;;;;;;;;5058758;28;20259;-62
2022/09/07 10:00:57;;;;;;;7.53;2.37;;;;;;;;;;5058205;28;20241;-63
2022/09/07 10:03:45;;;;;;;4.43;1.97;;;;;;;;;;5056851;28;20232;-62
2022/09/07 10:06:20;;;;;;;5.73;3.03;;;;;;;;;;5058048;28;20271;-61
2022/09/07 10:08:54;;;;;;;5.60;2.47;;;;;;;;;;5058144;28;20229;-61
2022/09/07 10:11:39;;;;;;;7.67;2.40;;;;;;;;;;5053932;28;20201;-61
2022/09/07 10:14:28;;;;;;;5.73;2.00;;;;;;;;;;5051129;28;20224;-62
2022/09/07 10:16:58;;;;;;;4.90;2.43;;;;;;;;;;5057864;28;20284;-62
2022/09/07 10:19:35;;;;;;;4.17;2.43;;;;;;;;;;5058166;28;20205;-62
2022/09/07 10:22:05;;;;;;;4.60;2.20;;;;;;;;;;5057997;28;20202;-62
2022/09/07 10:24:37;;;;;;;4.60;2.23;;;;;;;;;;5057769;28;20290;-62
2022/09/07 10:27:19;;;;;;;4.13;2.37;;;;;;;;;;5057769;28;20204;-59
2022/09/07 10:29:47;;;;;;;4.97;2.10;;;;;;;;;;5058024;28;20221;-58
2022/09/07 10:32:23;;;;;;;6.13;2.37;;;;;;;;;;5057097;28;20206;-58
2022/09/07 10:34:57;;;;;;;5.77;2.30;;;;;;;;;;5055590;28;20576;-59
2022/09/07 10:37:32;;;;;;;5.50;2.17;;;;;;;;;;5055858;28;20333;-58
2022/09/07 10:40:05;;;;;;;3.53;2.10;;;;;;;;;;5056104;28;20223;-59
2022/09/07 10:42:34;;;;;;;2.40;2.20;;;;;;;;;;5055199;28;20213;-58
2022/09/07 10:45:14;;;;;;;7.07;2.67;;;;;;;;;;5054557;28;20638;-58
2022/09/07 10:47:48;;;;;;;4.07;2.10;;;;;;;;;;5055097;28;20690;-58
2022/09/07 10:50:23;;;;;;;4.33;2.20;;;;;;;;;;5055452;28;20661;-59
2022/09/07 10:52:56;;;;;;;9.17;2.60;;;;;;;;;;5055686;28;20296;-58
2022/09/07 10:55:28;;;;;;;3.80;2.60;;;;;;;;;;5055964;28;20209;-58
2022/09/07 10:58:02;;;;;;;3.90;1.80;;;;;;;;;;5057720;28;20226;-58
2022/09/07 11:00:34;;;;;;;4.30;1.97;;;;;;;;;;5057627;28;20614;-58
2022/09/07 11:03:14;;;;;;;3.80;2.30;;;;;;;;;;5057762;28;20217;-58
2022/09/07 11:06:05;;;;;;;2.93;2.10;;;;;;;;;;5057212;28;20238;-58
2022/09/07 11:08:38;;;;;;;3.67;2.03;;;;;;;;;;5057477;28;20593;-58
2022/09/07 11:11:27;;;;;;;3.37;2.40;;;;;;;;;;5057325;28;20605;-58
2022/09/07 11:14:17;;;;;;;8.60;2.90;;;;;;;;;;5057214;28;20232;-58
2022/09/07 11:16:48;;;;;;;6.60;2.20;;;;;;;;;;5057720;28;20208;-58
2022/09/07 11:19:20;;;;;;;6.70;2.33;;;;;;;;;;5057875;28;20237;-59
2022/09/07 11:22:10;;;;;;;7.83;2.30;;;;;;;;;;5057368;28;20213;-58
2022/09/07 11:24:41;;;;;;;5.07;2.30;;;;;;;;;;5057470;28;20234;-60
2022/09/07 11:27:12;;;;;;;3.90;2.40;;;;;;;;;;5057206;28;20204;-60
2022/09/07 11:29:44;;;;;;;4.13;2.70;;;;;;;;;;5057204;28;20240;-60
2022/09/07 11:32:16;;;;;;;6.43;3.03;;;;;;;;;;5057244;28;20549;-60
2022/09/07 11:34:49;;;;;;;5.13;2.30;;;;;;;;;;5057092;28;20225;-60
2022/09/07 11:37:20;;;;;;;5.47;2.10;;;;;;;;;;5057959;28;20212;-60
2022/09/07 11:39:51;;;;;;;6.00;2.03;;;;;;;;;;5061247;28;20212;-60
2022/09/07 11:42:24;;;;;;;5.83;2.10;;;;;;;;;;5061183;28;20206;-60
2022/09/07 11:45:15;;;;;;;4.93;2.23;;;;;;;;;;5060984;28;20699;-60
2022/09/07 11:47:46;;;;;;;8.07;2.20;;;;;;;;;;5061464;28;20212;-60
2022/09/07 11:50:16;;;;;;;9.80;2.83;;;;;;;;;;5060971;28;20216;-60
2022/09/07 11:52:49;;;;;;;3.67;2.10;;;;;;;;;;5061034;28;20212;-60
2022/09/07 11:55:22;;;;;;;5.67;2.20;;;;;;;;;;5061229;28;20205;-60
2022/09/07 11:57:58;;;;;;;6.70;2.60;;;;;;;;;;5060996;28;20730;-59
2022/09/07 12:00:30;;;;;;;5.53;2.40;;;;;;;;;;5061200;28;20213;-60
2022/09/07 12:03:15;;;;;;;6.93;2.80;;;;;;;;;;5061000;28;20219;-60
2022/09/07 12:05:56;;;;;;;4.97;2.70;;;;;;;;;;5060799;28;20279;-60
2022/09/07 12:08:31;;;;;;;7.07;2.40;;;;;;;;;;5060728;28;20620;-60
2022/09/07 12:11:17;;;;;;;6.77;2.30;;;;;;;;;;5060826;28;20206;-60
2022/09/07 12:14:05;;;;;;;7.97;2.83;;;;;;;;;;5060705;28;20229;-60
2022/09/07 12:16:39;;;;;;;5.20;2.23;;;;;;;;;;5060775;28;20208;-60
2022/09/07 12:19:17;;;;;;;4.57;2.65;;;;;;;;;;5060523;28;20207;-60
2022/09/07 12:21:49;;;;;;;7.27;2.33;;;;;;;;;;5060151;28;20210;-60
2022/09/07 12:24:32;;;;;;;5.07;2.40;;;;;;;;;;5060264;28;20749;-60
2022/09/07 12:27:00;;;;;;;10.30;2.67;;;;;;;;;;5060364;28;20204;-60
2022/09/07 12:29:30;;;;;;;7.97;2.13;;;;;;;;;;5060392;28;20621;-60
2022/09/07 12:31:59;;;;;;;7.27;2.43;;;;;;;;;;5060596;28;20205;-60
2022/09/07 12:34:50;;;;;;;6.67;2.60;;;;;;;;;;5059852;28;20238;-60
2022/09/07 12:37:36;;;;;;;9.13;2.27;;;;;;;;;;5060345;28;20605;-60
2022/09/07 12:40:23;;;;;;;9.07;2.63;;;;;;;;;;5060445;28;20211;-60
2022/09/07 12:43:11;;;;;;;4.63;1.90;;;;;;;;;;5060282;28;20220;-60
2022/09/07 12:45:50;;;;;;;7.83;2.70;;;;;;;;;;5059972;28;20209;-60
2022/09/07 12:48:26;;;;;;;4.00;2.20;;;;;;;;;;5059799;28;20214;-59
2022/09/07 12:50:57;;;;;;;7.87;2.40;;;;;;;;;;5058999;28;20266;-60
2022/09/07 12:53:31;;;;;;;5.17;2.33;;;;;;;;;;5059950;28;20269;-60
2022/09/07 12:56:17;;;;;;;6.00;2.10;;;;;;;;;;5060026;28;20217;-59
2022/09/07 12:58:51;;;;;;;4.82;2.25;;;;;;;;;;5060243;28;20293;-60
2022/09/07 13:01:24;;;;;;;3.50;2.87;;;;;;;;;;5059955;28;20207;-60
2022/09/07 13:04:07;;;;;;;7.10;2.40;;;;;;;;;;5059715;28;20271;-60
2022/09/07 13:06:52;;;;;;;6.80;3.03;;;;;;;;;;5047093;28;20215;-59
2022/09/07 13:09:34;;;;;;;3.90;2.20;;;;;;;;;;5053193;28;20230;-59
2022/09/07 13:12:04;;;;;;;4.70;2.50;;;;;;;;;;5059707;28;20210;-59
2022/09/07 13:14:36;;;;;;;8.53;2.60;;;;;;;;;;5059535;28;20230;-59
2022/09/07 13:17:19;;;;;;;5.70;2.40;;;;;;;;;;5059440;28;20273;-59
2022/09/07 13:20:16;;;;;;;5.57;2.40;;;;;;;;;;5059085;28;20210;-59
2022/09/07 13:22:54;;;;;;;3.67;2.17;;;;;;;;;;5059637;28;20209;-59
2022/09/07 13:25:40;;;;;;;5.00;2.40;;;;;;;;;;5059178;28;20209;-59
2022/09/07 13:28:16;;;;;;;6.00;2.10;;;;;;;;;;5059285;28;20198;-59
2022/09/07 13:30:54;;;;;;;3.07;2.20;;;;;;;;;;5059813;28;20235;-59
2022/09/07 13:33:56;;;;;;;5.93;2.40;;;;;;;;;;5059047;28;20231;-59
2022/09/07 13:36:29;;;;;;;4.70;2.10;;;;;;;;;;5058741;28;20575;-59
2022/09/07 13:38:58;;;;;;;3.70;2.30;;;;;;;;;;5059170;28;20205;-59
2022/09/07 13:41:28;;;;;;;7.67;2.50;;;;;;;;;;5059134;28;20335;-59
2022/09/07 13:44:00;;;;;;;7.97;2.40;;;;;;;;;;5058955;28;20215;-59
2022/09/07 13:46:40;;;;;;;6.10;2.17;;;;;;;;;;5058743;28;20226;-59
2022/09/07 13:49:16;;;;;;;4.77;2.63;;;;;;;;;;5058856;28;20208;-59
2022/09/07 13:51:47;;;;;;;3.90;2.00;;;;;;;;;;5058580;28;20247;-59
2022/09/07 13:54:19;;;;;;;9.53;2.80;;;;;;;;;;5058942;28;20232;-59
2022/09/07 13:56:51;;;;;;;8.70;2.40;;;;;;;;;;5058915;28;20207;-59
2022/09/07 13:59:22;;;;;;;6.17;3.10;;;;;;;;;;5058918;28;20202;-59
2022/09/07 14:01:50;;;;;;;6.07;2.37;;;;;;;;;;5058632;28;20219;-59
2022/09/07 14:04:21;;;;;;;6.03;2.47;;;;;;;;;;5058608;28;20226;-59
2022/09/07 14:06:49;;;;;;;4.27;2.30;;;;;;;;;;5058692;28;20213;-59
2022/09/07 14:09:18;;;;;;;5.83;2.77;;;;;;;;;;5058576;28;20224;-59
2022/09/07 14:11:47;;;;;;;6.17;2.60;;;;;;;;;;5058565;28;20205;-59
2022/09/07 14:14:16;;;;;;;6.90;2.57;;;;;;;;;;5058628;28;20236;-59
2022/09/07 14:16:46;;;;;;;9.15;2.28;;;;;;;;;;5058366;28;20208;-59
2022/09/07 14:19:19;;;;;;;5.78;2.25;;;;;;;;;;5058286;28;20673;-59
2022/09/07 14:21:57;;;;;;;6.27;2.60;;;;;;;;;;5058143;28;20210;-59
2022/09/07 14:24:35;;;;;;;8.88;2.80;;;;;;;;;;5058155;28;20226;-59
2022/09/07 14:27:04;;;;;;;8.98;2.53;;;;;;;;;;5058231;28;20203;-59
2022/09/07 14:29:32;;;;;;;7.60;2.37;;;;;;;;;;5058006;28;20721;-59
2022/09/07 14:32:03;;;;;;;8.13;3.47;;;;;;;;;;5058026;28;20665;-59
2022/09/07 14:34:33;;;;;;;7.90;2.30;;;;;;;;;;5058022;28;20228;-59
2022/09/07 14:37:03;;;;;;;6.10;2.40;;;;;;;;;;5058293;28;20240;-59
2022/09/07 14:39:34;;;;;;;7.07;2.23;;;;;;;;;;5058058;28;20654;-59
2022/09/07 14:42:02;;;;;;;6.73;2.50;;;;;;;;;;5058068;28;20215;-59
2022/09/07 14:44:35;;;;;;;5.60;2.00;;;;;;;;;;5057690;28;20236;-59
2022/09/07 14:47:10;;;;;;;4.93;2.97;;;;;;;;;;5057814;28;20579;-59
2022/09/07 14:49:38;;;;;;;12.13;2.47;;;;;;;;;;5057404;28;20210;-59
2022/09/07 14:52:06;;;;;;;6.27;2.17;;;;;;;;;;5057586;28;20604;-59
2022/09/07 14:54:34;;;;;;;8.27;2.50;;;;;;;;;;5057570;28;20243;-59
2022/09/07 14:57:05;;;;;;;7.10;2.53;;;;;;;;;;5057615;28;20670;-59
2022/09/07 14:59:36;;;;;;;7.83;2.60;;;;;;;;;;5057866;28;20206;-59
2022/09/07 15:02:34;;;;;;;5.00;2.63;;;;;;;;;;5057700;28;20206;-59
2022/09/07 15:05:22;;;;;;;8.07;2.87;;;;;;;;;;5057030;28;20226;-59
2022/09/07 15:07:51;;;;;;;4.60;2.10;;;;;;;;;;5057600;28;20223;-59
2022/09/07 15:10:28;;;;;;;5.18;2.35;;;;;;;;;;5057565;28;20228;-59
2022/09/07 15:12:56;;;;;;;4.88;1.88;;;;;;;;;;5056720;28;20206;-59
2022/09/07 15:15:25;;;;;;;3.57;2.10;;;;;;;;;;5057968;28;20245;-59
2022/09/07 15:17:55;;;;;;;6.17;1.87;;;;;;;;;;5057572;28;20211;-59